Time;durP1;ratioP1;P1;durP2;ratioP2;P2;SDS_P1;SDS_P2;PMS_P1;PMS_P2;Temp;Humidity;BMP_temperature;BMP_pressure;BME280_temperature;BME280_humidity;BME280_pressure;Samples;Min_cycle;Max_cycle;Signal;HPM_P1;HPM_P2
2021/03/20 00:01:49;;;;;;;2.30;2.08;;;;;;;-2.03;77.10;97889.71;1729725;82;21174;-64
2021/03/20 00:04:18;;;;;;;1.37;1.27;;;;;;;-2.08;76.68;97893.72;1729446;83;21167;-64
2021/03/20 00:06:51;;;;;;;1.92;1.82;;;;;;;-2.08;76.95;97900.52;1729633;83;21168;-64
2021/03/20 00:09:24;;;;;;;2.02;1.92;;;;;;;-2.11;76.44;97902.77;1729529;83;21159;-64
2021/03/20 00:11:55;;;;;;;1.42;1.35;;;;;;;-2.14;75.72;97899.06;1729507;81;21155;-64
2021/03/20 00:14:24;;;;;;;2.25;1.20;;;;;;;-2.19;75.49;97898.45;1729680;83;21639;-64
2021/03/20 00:16:54;;;;;;;0.88;0.88;;;;;;;-2.19;76.32;97901.44;1729721;81;21168;-64
2021/03/20 00:19:22;;;;;;;0.85;0.85;;;;;;;-2.20;76.21;97901.88;1715483;82;21202;-63
2021/03/20 00:21:50;;;;;;;1.55;1.00;;;;;;;-2.23;75.93;97899.92;1715369;84;21602;-64
2021/03/20 00:24:18;;;;;;;3.05;1.62;;;;;;;-2.23;76.10;97897.37;1715297;82;21167;-64
2021/03/20 00:26:46;;;;;;;2.33;1.67;;;;;;;-2.27;76.02;97900.50;1715220;84;21684;-64
2021/03/20 00:29:14;;;;;;;1.47;1.37;;;;;;;-2.27;76.63;97897.13;1715246;84;21191;-64
2021/03/20 00:31:42;;;;;;;1.47;1.37;;;;;;;-2.28;76.39;97899.28;1715212;82;21195;-64
2021/03/20 00:34:30;;;;;;;2.08;1.20;;;;;;;-2.28;76.30;97893.75;1715175;82;21176;-64
2021/03/20 00:36:59;;;;;;;3.55;3.25;;;;;;;-2.30;75.99;97895.98;1666625;85;21191;-64
2021/03/20 00:39:27;;;;;;;2.67;1.45;;;;;;;-2.35;75.63;97896.63;1666581;85;21156;-64
2021/03/20 00:41:55;;;;;;;2.10;1.75;;;;;;;-2.37;76.02;97894.61;1666575;85;21219;-64
2021/03/20 00:44:24;;;;;;;3.40;1.42;;;;;;;-2.36;77.00;97894.95;1666674;85;21624;-62
2021/03/20 00:46:53;;;;;;;0.95;0.88;;;;;;;-2.41;75.87;97890.89;1666460;85;21262;-64
2021/03/20 00:49:21;;;;;;;1.90;1.50;;;;;;;-2.37;76.32;97887.77;1666684;85;21623;-62
2021/03/20 00:51:49;;;;;;;1.45;1.07;;;;;;;-2.35;76.34;97886.45;1666402;85;21187;-66
2021/03/20 00:54:17;;;;;;;1.10;0.88;;;;;;;-2.36;76.56;97884.34;1666585;85;21712;-63
2021/03/20 00:56:45;;;;;;;1.35;0.98;;;;;;;-2.36;76.34;97886.06;1666722;85;21187;-63
2021/03/20 00:59:13;;;;;;;8.53;2.15;;;;;;;-2.36;76.13;97886.06;1666682;85;21167;-62
2021/03/20 01:01:41;;;;;;;2.50;2.00;;;;;;;-2.38;76.28;97886.59;1666608;85;21750;-63
2021/03/20 01:04:09;;;;;;;2.95;2.65;;;;;;;-2.41;76.49;97891.34;1666421;85;21195;-62
2021/03/20 01:06:37;;;;;;;1.57;1.47;;;;;;;-2.46;76.06;97889.45;1666370;85;21147;-63
2021/03/20 01:09:07;;;;;;;5.55;2.85;;;;;;;-2.50;76.31;97889.20;1662729;85;21624;-62
2021/03/20 01:11:35;;;;;;;1.85;1.70;;;;;;;-2.57;76.07;97887.34;1666638;85;21175;-62
2021/03/20 01:14:03;;;;;;;2.98;2.17;;;;;;;-2.62;75.87;97893.52;1666498;85;21282;-62
2021/03/20 01:16:31;;;;;;;4.40;2.22;;;;;;;-2.66;76.28;97895.81;1666483;86;21179;-62
2021/03/20 01:18:59;;;;;;;6.00;1.90;;;;;;;-2.73;76.32;97895.69;1666323;85;21171;-62
2021/03/20 01:21:27;;;;;;;1.37;1.27;;;;;;;-2.78;76.72;97893.77;1666426;85;21272;-62
2021/03/20 01:23:55;;;;;;;4.28;2.83;;;;;;;-2.83;77.08;97899.47;1666400;85;21186;-62
2021/03/20 01:26:23;;;;;;;2.75;2.33;;;;;;;-2.89;77.19;97900.13;1666509;85;21624;-62
2021/03/20 01:28:51;;;;;;;3.60;2.37;;;;;;;-2.93;77.19;97900.30;1667155;85;21251;-66
2021/03/20 01:31:19;;;;;;;2.83;2.20;;;;;;;-2.98;77.34;97906.83;1667165;85;21144;-62
2021/03/20 01:33:48;;;;;;;2.47;2.27;;;;;;;-3.01;77.13;97904.86;1667075;85;21182;-63
2021/03/20 01:36:18;;;;;;;2.05;1.92;;;;;;;-3.03;76.91;97905.34;1666359;85;21246;-62
2021/03/20 01:38:47;;;;;;;2.92;2.40;;;;;;;-3.07;77.23;97911.00;1667222;85;21191;-66
2021/03/20 01:41:19;;;;;;;1.37;1.10;;;;;;;-3.10;77.19;97916.64;1667378;85;21211;-68
2021/03/20 01:43:47;;;;;;;1.57;1.47;;;;;;;-3.14;77.07;97915.94;1667294;85;21187;-66
2021/03/20 01:46:45;;;;;;;4.45;1.17;;;;;;;-3.20;76.82;97916.63;1667183;85;21223;-64
2021/03/20 01:49:45;;;;;;;2.27;1.40;;;;;;;-3.22;76.91;97913.31;1667055;85;21183;-63
2021/03/20 01:52:39;;;;;;;1.47;1.37;;;;;;;-3.23;76.97;97917.56;1666448;85;21194;-63
2021/03/20 01:55:31;;;;;;;1.95;1.80;;;;;;;-3.24;76.73;97923.55;1592016;90;21196;-64
2021/03/20 01:58:02;;;;;;;1.02;1.02;;;;;;;-3.23;76.60;97925.65;1695417;83;21214;-64
2021/03/20 02:00:35;;;;;;;3.00;1.60;;;;;;;-3.24;77.49;97926.09;1695360;83;21628;-65
2021/03/20 02:03:08;;;;;;;1.25;1.12;;;;;;;-3.25;76.56;97928.67;1695374;83;21167;-64
2021/03/20 02:05:36;;;;;;;1.98;1.80;;;;;;;-3.30;76.27;97928.84;1695463;83;21179;-65
2021/03/20 02:08:06;;;;;;;1.37;1.27;;;;;;;-3.32;76.40;97932.34;1695136;83;21166;-64
2021/03/20 02:10:38;;;;;;;1.67;1.52;;;;;;;-3.34;76.50;97929.84;1695267;83;21599;-65
2021/03/20 02:13:17;;;;;;;0.80;0.78;;;;;;;-3.36;76.79;97929.92;1695359;83;21640;-65
2021/03/20 02:16:11;;;;;;;1.45;1.22;;;;;;;-3.29;76.63;97928.41;1848411;76;22086;-63
2021/03/20 02:18:50;;;;;;;1.55;1.30;;;;;;;-3.36;76.58;97927.82;1810341;77;21183;-64
2021/03/20 02:21:26;;;;;;;2.90;1.22;;;;;;;-3.38;76.75;97927.04;1859735;77;21698;-62
2021/03/20 02:24:16;;;;;;;1.85;1.02;;;;;;;-3.40;77.00;97929.66;1859966;77;21159;-63
2021/03/20 02:30:52;;;;;;;2.83;1.60;;;;;;;-3.47;75.54;97931.22;1819822;79;22951;-61
2021/03/20 02:33:44;;;;;;;;;;;;;;;-3.58;75.51;97941.74;1795435;80;21265;-61
2021/03/20 02:36:40;;;;;;;1.45;1.40;;;;;;;-3.61;75.27;97944.84;1792868;80;20143;-61
2021/03/20 02:39:47;;;;;;;1.37;0.95;;;;;;;-3.68;75.09;97940.44;1792715;80;21261;-60
2021/03/20 02:42:41;;;;;;;1.42;1.22;;;;;;;-3.73;75.09;97940.21;1733593;80;21548;-61
2021/03/20 02:45:34;;;;;;;0.63;0.60;;;;;;;-3.80;75.30;97943.86;1792818;80;21297;-61
2021/03/20 02:51:11;;;;;;;1.50;1.20;;;;;;;-3.87;75.11;97949.60;1693379;84;21136;-65
2021/03/20 02:53:47;;;;;;;0.88;0.88;;;;;;;-3.88;75.31;97951.74;1697268;84;21207;-64
2021/03/20 02:56:50;;;;;;;1.25;1.20;;;;;;;-3.91;74.87;97952.69;1698993;84;21384;-64
2021/03/20 02:59:22;;;;;;;1.37;1.00;;;;;;;-3.92;74.78;97953.56;1753490;81;21165;-64
2021/03/20 03:01:53;;;;;;;1.30;1.07;;;;;;;-3.91;74.61;97953.96;1726330;82;21149;-64
2021/03/20 03:04:24;;;;;;;1.82;1.70;;;;;;;-3.93;74.82;97953.17;1753464;81;21653;-64
2021/03/20 03:07:06;;;;;;;0.82;0.75;;;;;;;-3.91;74.82;97959.47;1726150;82;21169;-64
2021/03/20 03:09:39;;;;;;;1.92;1.60;;;;;;;-3.91;74.93;97965.81;1752951;81;21130;-64
2021/03/20 03:12:30;;;;;;;1.85;1.47;;;;;;;-3.93;74.57;97966.33;1753589;81;21197;-64
2021/03/20 03:15:03;;;;;;;2.72;1.62;;;;;;;-3.96;74.33;97965.97;1698793;84;21313;-64
2021/03/20 03:17:35;;;;;;;0.98;0.98;;;;;;;-3.98;74.76;97966.91;1698993;84;21595;-64
2021/03/20 03:20:33;;;;;;;1.27;1.17;;;;;;;-4.01;74.94;97965.77;1698976;84;21179;-64
2021/03/20 03:23:18;;;;;;;4.83;4.25;;;;;;;-4.04;74.88;97964.58;1681309;84;21186;-63
2021/03/20 03:25:50;;;;;;;1.75;1.65;;;;;;;-4.05;74.68;97975.63;1680847;84;21179;-63
2021/03/20 03:28:22;;;;;;;0.68;0.57;;;;;;;-4.08;74.65;97974.00;1680988;85;21219;-63
2021/03/20 03:30:50;;;;;;;1.32;1.22;;;;;;;-4.07;74.63;97970.59;1681256;84;21925;-64
2021/03/20 03:33:27;;;;;;;3.30;2.90;;;;;;;-4.09;74.69;97975.34;1681345;85;21187;-66
2021/03/20 03:36:07;;;;;;;1.55;1.45;;;;;;;-4.15;74.17;97973.83;1681391;84;21139;-63
2021/03/20 03:38:55;;;;;;;1.62;1.52;;;;;;;-4.16;74.31;97977.70;1681392;84;21246;-64
2021/03/20 03:41:28;;;;;;;0.53;0.45;;;;;;;-4.16;74.37;97986.11;1680926;84;21167;-66
2021/03/20 03:43:56;;;;;;;4.10;3.70;;;;;;;-4.21;74.06;97989.70;1680649;85;21172;-61
2021/03/20 03:46:29;;;;;;;0.68;0.68;;;;;;;-4.25;73.70;97990.25;1680915;84;21607;-63
2021/03/20 03:49:02;;;;;;;1.25;1.25;;;;;;;-4.26;73.78;97988.59;1680573;84;21187;-62
2021/03/20 03:51:30;;;;;;;0.60;0.60;;;;;;;-4.28;74.01;97993.33;1680938;85;21356;-63
2021/03/20 03:54:00;;;;;;;0.47;0.47;;;;;;;-4.30;74.06;97995.91;1681060;85;21537;-61
2021/03/20 03:57:16;;;;;;;0.72;0.72;;;;;;;-4.30;74.19;97997.17;1680513;85;21652;-61
2021/03/20 04:00:11;;;;;;;0.68;0.68;;;;;;;-4.33;74.01;97994.31;1680399;84;21207;-62
2021/03/20 04:02:54;;;;;;;1.25;1.15;;;;;;;-4.30;74.34;97997.17;1673491;84;21171;-63
2021/03/20 04:06:02;;;;;;;2.00;1.10;;;;;;;-4.22;74.99;97996.91;1823667;77;23502;-62
2021/03/20 04:09:06;;;;;;;0.90;0.90;;;;;;;-4.24;75.14;98005.03;1627596;88;21684;-62
2021/03/20 04:12:06;;;;;;;3.60;2.40;;;;;;;-4.25;75.14;98001.66;1627362;87;21337;-62
2021/03/20 04:14:46;;;;;;;1.62;1.52;;;;;;;-4.23;75.09;98005.39;1627805;87;21230;-61
2021/03/20 04:17:22;;;;;;;1.52;1.07;;;;;;;-4.26;74.82;98006.77;1627482;88;21202;-61
2021/03/20 04:20:08;;;;;;;0.75;0.75;;;;;;;-4.27;75.01;98006.38;1627498;87;21199;-61
2021/03/20 04:23:39;;;;;;;0.68;0.68;;;;;;;-4.22;75.14;98004.08;1841249;77;23647;-61
2021/03/20 04:26:31;;;;;;;3.22;1.60;;;;;;;-4.28;74.76;98004.73;1722717;83;21177;-64
2021/03/20 04:29:13;;;;;;;1.35;1.32;;;;;;;-4.29;74.98;98001.38;1719636;82;21616;-61
2021/03/20 04:31:52;;;;;;;2.20;1.67;;;;;;;-4.27;75.11;98007.64;1722750;82;21613;-61
2021/03/20 04:34:35;;;;;;;1.50;1.22;;;;;;;-4.27;75.33;98007.64;1716365;83;21196;-63
2021/03/20 04:37:12;;;;;;;0.70;0.70;;;;;;;-4.29;74.70;98017.85;1717814;83;21192;-68
2021/03/20 04:39:48;;;;;;;1.70;0.53;;;;;;;-4.31;74.58;98010.72;1712805;83;21666;-64
2021/03/20 04:42:42;;;;;;;1.40;1.17;;;;;;;-4.30;75.29;98017.45;1715869;83;21188;-63
2021/03/20 04:45:28;;;;;;;3.37;1.57;;;;;;;-4.34;74.97;98021.80;1700856;84;21656;-64
2021/03/20 04:48:02;;;;;;;0.82;0.78;;;;;;;-4.36;74.57;98031.14;1702463;83;21175;-61
2021/03/20 04:50:33;;;;;;;0.40;0.40;;;;;;;-4.36;74.53;98029.88;1701877;83;21246;-63
2021/03/20 04:53:01;;;;;;;2.33;1.05;;;;;;;-4.33;74.84;98037.84;1707454;83;21181;-66
2021/03/20 04:55:30;;;;;;;2.58;2.12;;;;;;;-4.32;75.07;98035.23;1710276;83;21660;-63
2021/03/20 05:01:18;;;;;;;0.80;0.80;;;;;;;-4.33;74.73;98047.55;1722659;82;21170;-66
2021/03/20 05:03:51;;;;;;;0.95;0.95;;;;;;;-4.37;74.70;98043.45;1722312;83;21171;-65
2021/03/20 05:06:24;;;;;;;2.22;1.22;;;;;;;-4.38;74.58;98037.98;1698690;83;21566;-65
2021/03/20 05:08:58;;;;;;;0.40;0.40;;;;;;;-4.38;74.26;98050.66;1722877;82;21190;-64
2021/03/20 05:17:45;;;;;;;0.90;0.88;;;;;;;-4.29;73.79;98055.05;1651351;86;21204;-64
2021/03/20 05:20:14;;;;;;;4.05;2.40;;;;;;;-4.29;73.79;98055.05;1633368;86;21212;-61
2021/03/20 05:22:42;;;;;;;2.00;1.85;;;;;;;-4.36;73.36;98055.69;1652438;84;21179;-62
2021/03/20 05:27:53;;;;;;;0.98;0.88;;;;;;;-4.34;73.51;98061.52;1690768;83;21135;-63
2021/03/20 05:30:43;;;;;;;1.82;0.65;;;;;;;-4.22;73.62;98056.50;1687971;84;21167;-63
2021/03/20 05:33:13;;;;;;;1.32;1.22;;;;;;;-4.15;73.54;98063.02;1689289;84;21198;-62
2021/03/20 05:35:42;;;;;;;1.57;1.12;;;;;;;-4.10;72.73;98066.24;1689380;84;21174;-62
2021/03/20 05:38:09;;;;;;;1.42;1.30;;;;;;;-4.05;72.11;98069.47;1689872;84;21233;-63
2021/03/20 05:40:37;;;;;;;1.62;0.50;;;;;;;-3.99;72.22;98065.45;1689010;84;21620;-64
2021/03/20 05:43:44;;;;;;;1.17;1.17;;;;;;;-3.94;71.59;98066.96;1689923;84;21148;-63
2021/03/20 05:46:50;;;;;;;1.87;1.50;;;;;;;-3.87;71.11;98063.33;1695909;83;21638;-62
2021/03/20 05:49:45;;;;;;;1.90;1.53;;;;;;;-3.72;71.28;98067.48;1701054;82;21194;-65
2021/03/20 05:52:54;;;;;;;2.58;2.37;;;;;;;-3.67;70.69;98065.19;1697672;83;21165;-65
2021/03/20 05:55:46;;;;;;;0.78;0.72;;;;;;;-3.65;70.69;98065.11;1690524;83;21267;-65
2021/03/20 05:58:47;;;;;;;0.70;0.50;;;;;;;-3.58;71.27;98061.51;1680190;83;21181;-62
2021/03/20 06:01:29;;;;;;;1.02;1.02;;;;;;;-3.47;71.28;98069.13;1676471;83;21172;-64
2021/03/20 06:04:51;;;;;;;2.15;0.80;;;;;;;-3.42;70.18;98064.70;1679817;83;21244;-65
2021/03/20 06:07:53;;;;;;;0.60;0.60;;;;;;;-3.27;70.24;98062.51;1726208;81;21237;-67
2021/03/20 06:10:29;;;;;;;2.05;1.10;;;;;;;-3.14;70.68;98076.40;1653076;86;21282;-63
2021/03/20 06:13:19;;;;;;;0.70;0.70;;;;;;;-3.04;69.72;98076.47;1687934;84;21193;-62
2021/03/20 06:16:23;;;;;;;0.45;0.45;;;;;;;-2.94;69.15;98063.36;1693629;83;21202;-64
2021/03/20 06:19:09;;;;;;;1.72;1.62;;;;;;;-2.78;69.12;98070.39;1693705;83;21611;-62
2021/03/20 06:22:10;;;;;;;1.40;1.30;;;;;;;-2.60;69.70;98068.41;1693465;83;21601;-62
2021/03/20 06:24:49;;;;;;;2.35;2.10;;;;;;;-2.50;68.24;98071.00;1721016;82;21185;-61
2021/03/20 06:27:24;;;;;;;0.95;0.85;;;;;;;-2.42;67.40;98076.61;1759083;81;21138;-62
2021/03/20 06:30:07;;;;;;;1.72;1.05;;;;;;;-2.32;67.54;98074.52;1758859;80;21694;-63
2021/03/20 06:32:41;;;;;;;1.30;1.07;;;;;;;-2.14;67.47;98078.89;1722626;82;21174;-63
2021/03/20 06:35:36;;;;;;;1.12;0.72;;;;;;;-1.91;67.82;98072.41;1758723;80;21584;-63
2021/03/20 06:38:07;;;;;;;0.95;0.82;;;;;;;-1.72;67.00;98078.83;1761880;80;21173;-62
2021/03/20 06:41:14;;;;;;;0.70;0.70;;;;;;;-1.66;65.62;98074.30;1761487;81;21170;-63
2021/03/20 06:43:54;;;;;;;1.17;0.93;;;;;;;-1.62;64.67;98072.00;1760744;81;21147;-64
2021/03/20 06:49:58;;;;;;;0.72;0.68;;;;;;;-1.09;64.65;98074.75;1798262;79;21581;-63
2021/03/20 06:52:28;;;;;;;1.75;1.45;;;;;;;-1.09;64.65;98074.75;1776513;79;21155;-63
2021/03/20 06:55:21;;;;;;;3.47;1.85;;;;;;;-1.00;63.28;98075.63;1794229;79;21552;-63
2021/03/20 06:57:50;;;;;;;1.57;0.90;;;;;;;-1.08;63.91;98076.86;1755912;80;21188;-63
2021/03/20 07:00:29;;;;;;;2.17;1.98;;;;;;;-0.59;66.33;98075.02;1748980;80;21128;-62
2021/03/20 07:03:41;;;;;;;3.17;2.40;;;;;;;-0.59;66.33;98075.02;1745180;79;21159;-63
2021/03/20 07:06:31;;;;;;;0.98;0.98;;;;;;;-0.35;66.63;98076.05;1736967;80;21156;-62
2021/03/20 07:09:03;;;;;;;2.08;1.87;;;;;;;-0.07;67.06;98074.63;1751974;80;21226;-62
2021/03/20 07:11:44;;;;;;;1.72;1.37;;;;;;;0.17;66.24;98078.98;1752458;80;21289;-64
2021/03/20 07:14:42;;;;;;;2.37;1.87;;;;;;;0.35;65.32;98085.72;1755836;80;21247;-65
2021/03/20 07:17:26;;;;;;;2.65;2.35;;;;;;;0.56;64.73;98079.16;1763762;80;21186;-64
2021/03/20 07:20:09;;;;;;;2.45;2.17;;;;;;;0.77;64.36;98081.91;1769221;80;21176;-72
2021/03/20 07:23:02;;;;;;;4.03;3.62;;;;;;;0.93;65.24;98078.45;1753541;80;21227;-64
2021/03/20 07:26:08;;;;;;;4.25;3.42;;;;;;;1.07;62.89;98072.63;1752564;81;21135;-65
2021/03/20 07:28:37;;;;;;;3.95;2.00;;;;;;;1.27;63.06;98076.68;1662691;85;21883;-63
2021/03/20 07:31:09;;;;;;;12.55;5.72;;;;;;;1.49;63.85;98075.88;1699504;83;21179;-64
2021/03/20 07:33:46;;;;;;;4.87;4.37;;;;;;;1.63;60.71;98075.13;1707618;83;21247;-64
2021/03/20 07:36:38;;;;;;;;;;;;;;;1.69;61.93;98077.34;1714504;83;21191;-64
2021/03/20 07:39:26;;;;;;;1.52;1.37;;;;;;;1.73;60.82;98061.73;1744255;80;20234;-69
2021/03/20 07:42:02;;;;;;;5.25;4.05;;;;;;;2.07;63.35;98086.25;1706346;82;21226;-64
2021/03/20 07:45:00;;;;;;;5.12;3.52;;;;;;;2.10;60.64;98070.70;1745101;81;21163;-65
2021/03/20 07:47:41;;;;;;;6.65;4.08;;;;;;;2.45;58.91;98099.45;1703009;82;21164;-65
2021/03/20 07:50:25;;;;;;;5.50;4.20;;;;;;;2.54;57.53;98098.89;1744987;80;21230;-65
2021/03/20 07:53:14;;;;;;;4.47;3.90;;;;;;;2.52;52.41;98092.22;1743453;80;21202;-65
2021/03/20 07:59:29;;;;;;;3.52;3.08;;;;;;;2.29;52.08;98086.70;1677170;85;21209;-64
2021/03/20 08:05:27;;;;;;;3.55;1.80;;;;;;;2.77;49.14;98078.30;1731900;82;21215;-65
2021/03/20 08:07:56;;;;;;;3.60;2.95;;;;;;;2.91;49.19;98072.36;1743666;80;21163;-65
2021/03/20 08:10:35;;;;;;;7.30;4.03;;;;;;;3.12;52.25;98078.28;1748413;81;21603;-65
2021/03/20 08:13:17;;;;;;;2.30;2.10;;;;;;;3.31;48.16;98081.36;1729208;81;21635;-63
2021/03/20 08:15:53;;;;;;;5.25;3.52;;;;;;;3.44;47.69;98080.60;1725881;80;21506;-66
2021/03/20 08:18:33;;;;;;;;;;;;;;;3.60;49.25;98091.56;1737156;82;21647;-63
2021/03/20 08:21:22;;;;;;;7.53;4.17;;;;;;;3.52;48.71;98095.06;1737033;82;20217;-64
2021/03/20 08:24:11;;;;;;;5.10;3.98;;;;;;;3.48;48.32;98098.29;1739762;82;22337;-65
2021/03/20 08:27:00;;;;;;;4.83;3.33;;;;;;;3.47;48.12;98100.94;1725653;81;21137;-62
2021/03/20 08:30:07;;;;;;;5.33;4.17;;;;;;;3.57;47.37;98106.72;1742740;81;21165;-64
2021/03/20 08:33:28;;;;;;;6.00;3.55;;;;;;;3.59;47.31;98099.72;1734694;81;21609;-62
2021/03/20 08:36:46;;;;;;;4.75;2.37;;;;;;;3.65;46.94;98107.52;1738129;81;21180;-64
2021/03/20 08:40:07;;;;;;;3.22;2.95;;;;;;;3.89;49.24;98110.28;1732575;82;21576;-63
2021/03/20 08:43:20;;;;;;;3.27;2.27;;;;;;;4.00;46.76;98102.70;1747097;80;21239;-63
2021/03/20 08:46:14;;;;;;;5.25;2.45;;;;;;;4.17;47.74;98103.25;1745254;81;21187;-61
2021/03/20 08:49:21;;;;;;;3.33;2.55;;;;;;;4.19;45.79;98103.99;1737766;81;21586;-61
2021/03/20 08:52:21;;;;;;;4.92;4.30;;;;;;;4.33;46.15;98104.36;1721336;82;21171;-62
2021/03/20 08:55:28;;;;;;;3.83;3.47;;;;;;;4.38;45.66;98104.06;1738247;81;21176;-63
2021/03/20 08:58:47;;;;;;;5.78;3.55;;;;;;;4.44;47.21;98104.94;1746855;81;21600;-62
2021/03/20 09:01:32;;;;;;;3.58;2.92;;;;;;;4.53;44.68;98105.16;1660137;85;21176;-62
2021/03/20 09:04:05;;;;;;;5.40;3.12;;;;;;;4.76;45.28;98110.88;1663888;85;21211;-62
2021/03/20 09:06:41;;;;;;;6.22;2.83;;;;;;;4.79;44.17;98109.84;1697231;83;21177;-62
2021/03/20 09:09:32;;;;;;;4.55;2.70;;;;;;;5.37;48.00;98111.83;1751259;80;21187;-62
2021/03/20 09:14:51;;;;;;;8.20;4.03;;;;;;;6.39;55.88;98121.27;1683393;83;21602;-62
2021/03/20 09:18:03;;;;;;;10.38;4.00;;;;;;;7.06;55.31;98122.22;1676291;84;21290;-63
2021/03/20 09:20:52;;;;;;;17.23;5.62;;;;;;;7.50;43.33;98117.51;1671093;85;21203;-64
2021/03/20 09:23:50;;;;;;;11.60;6.00;;;;;;;7.62;38.24;98112.67;1671199;86;21628;-64
2021/03/20 09:26:39;;;;;;;10.43;3.77;;;;;;;7.16;37.91;98122.68;1714925;83;21136;-64
2021/03/20 09:29:28;;;;;;;17.37;4.42;;;;;;;8.27;46.80;98119.52;1691003;84;21299;-64
2021/03/20 09:32:09;;;;;;;9.88;3.90;;;;;;;8.98;42.21;98118.78;1704926;83;21226;-65
2021/03/20 09:34:42;;;;;;;15.18;4.17;;;;;;;9.02;32.51;98120.99;1708623;83;21607;-65
2021/03/20 09:40:44;;;;;;;15.93;4.35;;;;;;;9.81;30.71;98126.28;1668372;84;21195;-63
2021/03/20 09:43:23;;;;;;;15.08;4.40;;;;;;;10.45;38.64;98126.64;1711802;82;21599;-63
2021/03/20 09:46:44;;;;;;;30.00;11.25;;;;;;;11.05;41.31;98123.32;1819576;78;24650;-62
2021/03/20 09:49:18;;;;;;;15.23;6.33;;;;;;;11.47;32.48;98127.13;1792848;80;21147;-64
2021/03/20 09:51:54;;;;;;;15.55;6.12;;;;;;;10.39;30.34;98120.67;1793034;80;21180;-65
2021/03/20 09:54:48;;;;;;;17.67;7.87;;;;;;;10.66;29.34;98122.59;1792863;80;21612;-64
2021/03/20 09:57:40;;;;;;;7.83;3.83;;;;;;;11.51;28.28;98124.57;1613041;88;21268;-64
2021/03/20 10:00:12;;;;;;;7.53;3.33;;;;;;;11.99;46.03;98113.89;1612941;89;21252;-64
2021/03/20 10:02:51;;;;;;;10.90;4.03;;;;;;;11.72;28.79;98119.95;1612985;89;21205;-64
2021/03/20 10:05:30;;;;;;;6.33;3.33;;;;;;;10.85;30.55;98116.05;1612730;88;21245;-63
2021/03/20 10:08:09;;;;;;;5.05;3.22;;;;;;;12.02;29.39;98116.70;1612742;88;21205;-65
2021/03/20 10:10:42;;;;;;;5.92;3.10;;;;;;;12.44;28.41;98119.52;1611586;89;21242;-65
2021/03/20 10:13:18;;;;;;;5.42;2.58;;;;;;;13.22;26.24;98109.00;1612869;89;21197;-63
2021/03/20 10:15:58;;;;;;;5.80;2.75;;;;;;;13.37;25.17;98114.44;1613014;88;21657;-65
2021/03/20 10:18:34;;;;;;;7.25;3.08;;;;;;;13.50;23.70;98116.11;1612968;89;21261;-66
2021/03/20 10:21:16;;;;;;;11.65;5.10;;;;;;;14.17;24.66;98116.94;1612850;88;21664;-65
2021/03/20 10:27:03;;;;;;;8.95;2.75;;;;;;;15.29;23.54;98117.84;1667546;85;21238;-68
2021/03/20 10:29:38;;;;;;;5.72;2.65;;;;;;;14.68;22.61;98121.89;1668640;86;21187;-65
2021/03/20 10:32:22;;;;;;;6.35;3.15;;;;;;;15.51;21.78;98118.47;1669055;85;21183;-65
2021/03/20 10:34:56;;;;;;;4.08;2.62;;;;;;;14.41;21.64;98114.88;1668549;85;21167;-63
2021/03/20 10:37:33;;;;;;;6.00;2.65;;;;;;;14.84;21.06;98117.63;1668903;86;21190;-65
2021/03/20 10:40:10;;;;;;;4.58;2.20;;;;;;;15.09;19.61;98108.77;1668757;85;21140;-65
2021/03/20 10:42:45;;;;;;;6.22;2.10;;;;;;;13.92;26.81;98117.89;1668131;85;21163;-62
2021/03/20 10:45:39;;;;;;;5.72;2.85;;;;;;;14.66;20.29;98115.21;1668843;85;21745;-62
2021/03/20 10:48:26;;;;;;;5.70;2.45;;;;;;;12.56;23.17;98105.28;1668769;86;21341;-62
2021/03/20 10:51:05;;;;;;;;;;;;;;;13.67;20.72;98109.16;1671242;86;21718;-65
2021/03/20 10:53:41;;;;;;;3.77;2.72;;;;;;;11.90;22.13;98113.49;1668817;85;20161;-64
2021/03/20 10:56:20;;;;;;;4.22;2.33;;;;;;;13.39;21.51;98119.48;1668587;86;21143;-63
2021/03/20 10:58:59;;;;;;;12.07;4.72;;;;;;;13.90;20.81;98114.60;1832566;76;28076;-65
2021/03/20 11:01:51;;;;;;;6.40;2.55;;;;;;;15.25;28.50;98117.89;1859770;77;21726;-63
2021/03/20 11:04:32;;;;;;;3.85;2.27;;;;;;;15.30;18.55;98110.33;1641729;87;21179;-64
2021/03/20 11:07:03;;;;;;;5.95;2.95;;;;;;;15.69;19.31;98110.36;1712554;84;21167;-64
2021/03/20 11:09:32;;;;;;;5.15;3.33;;;;;;;15.80;20.25;98103.42;1712693;83;21239;-64
2021/03/20 11:12:06;;;;;;;10.15;5.10;;;;;;;13.92;20.50;98099.12;1712681;83;21206;-65
2021/03/20 11:14:56;;;;;;;4.53;2.55;;;;;;;13.27;23.20;98094.98;1712611;83;21176;-68
2021/03/20 11:17:28;;;;;;;4.00;2.42;;;;;;;14.04;23.93;98090.50;1712737;83;21167;-64
2021/03/20 11:20:22;;;;;;;4.85;2.87;;;;;;;15.42;24.51;98089.84;1712649;83;21195;-64
2021/03/20 11:22:51;;;;;;;3.95;2.25;;;;;;;14.65;21.84;98087.43;1712596;83;21207;-65
2021/03/20 11:25:36;;;;;;;7.17;2.77;;;;;;;16.04;20.32;98081.52;1712948;83;21557;-63
2021/03/20 11:28:28;;;;;;;7.22;3.52;;;;;;;15.85;19.28;98083.28;1712932;84;21569;-63
2021/03/20 11:31:06;;;;;;;5.83;2.55;;;;;;;16.58;18.73;98080.95;1709787;83;21607;-64
2021/03/20 11:33:39;;;;;;;3.87;2.40;;;;;;;17.88;21.64;98081.64;1709756;83;21544;-65
2021/03/20 11:36:15;;;;;;;5.15;3.00;;;;;;;18.92;23.11;98070.44;1709626;83;21158;-63
2021/03/20 11:38:43;;;;;;;;;;;;;;;19.57;16.92;98071.84;1712211;83;21174;-65
2021/03/20 11:41:16;;;;;;;5.30;3.40;;;;;;;19.85;17.02;98069.89;1709733;83;20592;-63
2021/03/20 11:43:49;;;;;;;6.65;2.95;;;;;;;18.58;16.98;98065.14;1709721;83;21594;-65
2021/03/20 11:46:25;;;;;;;5.78;3.30;;;;;;;19.00;17.12;98056.31;1709712;83;21169;-64
2021/03/20 11:49:01;;;;;;;7.22;3.60;;;;;;;18.54;17.06;98061.26;1710328;82;21580;-65
2021/03/20 11:51:35;;;;;;;5.53;3.08;;;;;;;19.14;17.15;98056.72;1723800;81;21637;-67
2021/03/20 11:54:09;;;;;;;6.22;2.55;;;;;;;18.65;16.67;98055.47;1706599;83;21617;-65
2021/03/20 11:56:39;;;;;;;5.45;3.00;;;;;;;19.91;26.03;98049.34;1670678;83;21167;-64
2021/03/20 11:59:33;;;;;;;6.87;3.15;;;;;;;20.60;16.46;98039.78;1726386;81;21175;-62
2021/03/20 12:02:01;;;;;;;6.30;2.95;;;;;;;21.07;14.97;98028.13;1698529;83;21182;-63
2021/03/20 12:04:33;;;;;;;6.80;3.05;;;;;;;21.08;15.75;98029.25;1726621;83;21131;-65
2021/03/20 12:10:16;;;;;;;;;;;;;;;16.58;18.10;98031.15;1683490;85;21183;-63
2021/03/20 12:12:48;;;;;;;22.30;12.70;;;;;;;17.42;20.68;98032.02;1680961;85;20135;-63
2021/03/20 12:15:34;;;;;;;23.18;13.53;;;;;;;17.66;19.42;98034.84;1680583;85;21629;-63
2021/03/20 12:18:12;;;;;;;;;;;;;;;17.61;21.92;98035.89;1644768;86;21566;-63
2021/03/20 12:20:43;;;;;;;5.42;3.20;;;;;;;16.06;17.92;98031.91;1669065;86;20144;-64
2021/03/20 12:23:21;;;;;;;3.58;2.33;;;;;;;14.81;19.50;98039.05;1635193;88;22337;-63
2021/03/20 12:25:56;;;;;;;3.37;1.98;;;;;;;14.42;20.61;98036.34;1694835;84;21695;-68
2021/03/20 12:28:43;;;;;;;5.28;2.33;;;;;;;15.01;20.31;98038.17;1695023;85;21179;-66
2021/03/20 12:31:36;;;;;;;6.55;2.62;;;;;;;14.16;20.28;98032.55;1695214;85;21313;-65
2021/03/20 12:37:12;;;;;;;5.17;2.77;;;;;;;13.64;21.51;98029.89;1695979;84;21139;-65
2021/03/20 12:39:40;;;;;;;3.95;2.08;;;;;;;12.47;22.60;98032.77;1648118;86;21262;-63
2021/03/20 12:42:09;;;;;;;4.50;2.77;;;;;;;11.85;23.73;98030.66;1679152;84;21180;-64
2021/03/20 12:44:49;;;;;;;4.37;2.62;;;;;;;11.38;24.76;98029.17;1711104;83;21606;-64
2021/03/20 12:47:19;;;;;;;5.97;2.27;;;;;;;11.58;24.52;98033.29;1712145;83;21152;-64
2021/03/20 12:49:47;;;;;;;3.77;2.10;;;;;;;11.73;24.94;98025.34;1717830;83;21596;-64
2021/03/20 12:52:22;;;;;;;3.67;2.02;;;;;;;12.11;26.65;98026.80;1709350;84;21225;-64
2021/03/20 12:54:55;;;;;;;4.95;2.60;;;;;;;12.30;27.82;98027.10;1709852;84;21184;-66
2021/03/20 12:57:29;;;;;;;5.90;2.65;;;;;;;11.88;24.69;98022.55;1709746;84;21175;-64
2021/03/20 12:59:57;;;;;;;3.70;2.47;;;;;;;11.42;25.28;98022.23;1714863;83;21152;-64
2021/03/20 13:02:26;;;;;;;5.78;3.02;;;;;;;11.59;26.22;98018.51;1710212;83;21632;-64
2021/03/20 13:04:54;;;;;;;4.55;2.90;;;;;;;11.17;25.21;98021.61;1713361;83;21175;-63
2021/03/20 13:07:23;;;;;;;9.10;2.27;;;;;;;10.74;25.62;98029.17;1716823;83;21155;-64
2021/03/20 13:09:52;;;;;;;3.92;2.58;;;;;;;10.56;25.91;98022.62;1707263;83;21620;-64
2021/03/20 13:12:20;;;;;;;3.55;2.20;;;;;;;10.25;26.71;98024.59;1713467;83;21249;-64
2021/03/20 13:14:48;;;;;;;7.00;3.72;;;;;;;10.28;26.01;98028.68;1716297;83;21640;-64
2021/03/20 13:17:17;;;;;;;4.87;1.98;;;;;;;8.92;27.70;98022.16;1710171;84;21211;-63
2021/03/20 13:19:47;;;;;;;3.42;1.90;;;;;;;9.50;28.00;98018.77;1716717;82;21521;-64
2021/03/20 13:22:15;;;;;;;3.77;1.87;;;;;;;9.70;28.01;98020.08;1712913;83;21652;-65
2021/03/20 13:24:43;;;;;;;5.45;2.80;;;;;;;9.85;26.88;98023.42;1709431;84;21580;-64